Time;durP1;ratioP1;P1;durP2;ratioP2;P2;SDS_P1;SDS_P2;PMS_P1;PMS_P2;Temp;Humidity;BMP_temperature;BMP_pressure;BME280_temperature;BME280_humidity;BME280_pressure;Samples;Min_cycle;Max_cycle;Signal;HPM_P1;HPM_P2
2024/01/11 00:02:24;;;;;;;49.70;29.27;;;-2.90;85.40;;;;;;5033090;28;20015;-63
2024/01/11 00:04:50;;;;;;;51.47;30.58;;;-3.10;84.40;;;;;;5032824;28;20545;-61
2024/01/11 00:07:16;;;;;;;60.53;33.55;;;-3.10;85.70;;;;;;5033151;28;20029;-64
2024/01/11 00:09:42;;;;;;;50.42;29.70;;;-3.20;85.90;;;;;;5032949;28;20384;-62
2024/01/11 00:12:08;;;;;;;47.80;29.30;;;-3.20;86.10;;;;;;5031697;28;20365;-65
2024/01/11 00:14:35;;;;;;;55.80;33.03;;;-3.10;86.20;;;;;;5033118;28;20045;-62
2024/01/11 00:17:01;;;;;;;75.03;44.60;;;-3.20;85.00;;;;;;5032759;28;20030;-61
2024/01/11 00:19:27;;;;;;;70.83;42.97;;;-3.20;83.90;;;;;;5032609;28;20028;-66
2024/01/11 00:21:53;;;;;;;85.75;48.22;;;-3.20;84.00;;;;;;5033037;28;20438;-62
2024/01/11 00:24:19;;;;;;;82.97;46.60;;;-3.30;83.70;;;;;;5032761;28;20387;-65
2024/01/11 00:26:45;;;;;;;72.67;42.80;;;-3.40;84.60;;;;;;5033028;28;20033;-62
2024/01/11 00:29:10;;;;;;;64.23;38.17;;;-3.40;85.10;;;;;;5036080;28;20530;-61
2024/01/11 00:31:38;;;;;;;64.45;38.75;;;-3.40;84.30;;;;;;5036394;28;20025;-63
2024/01/11 00:34:03;;;;;;;69.67;40.53;;;-3.40;82.90;;;;;;5036452;28;20052;-66
2024/01/11 00:36:29;;;;;;;62.23;39.17;;;-3.40;83.40;;;;;;5036410;28;20463;-67
2024/01/11 00:38:55;;;;;;;64.87;37.47;;;-3.50;83.70;;;;;;5036635;28;20036;-64
2024/01/11 00:41:20;;;;;;;60.30;35.43;;;-3.50;82.60;;;;;;5036694;28;20026;-63
2024/01/11 00:43:46;;;;;;;62.55;35.85;;;-3.50;82.50;;;;;;5036346;28;20017;-64
2024/01/11 00:46:12;;;;;;;56.37;32.57;;;-3.50;83.60;;;;;;5036489;28;20489;-63
2024/01/11 00:48:38;;;;;;;56.93;33.57;;;-3.50;83.60;;;;;;5036122;28;20021;-65
2024/01/11 00:51:05;;;;;;;53.87;30.30;;;-3.50;85.00;;;;;;5036256;28;20115;-63
2024/01/11 00:53:31;;;;;;;49.85;28.15;;;-3.50;85.00;;;;;;5036123;28;20084;-65
2024/01/11 00:55:57;;;;;;;48.57;29.70;;;-3.50;84.80;;;;;;5036179;28;20041;-65
2024/01/11 00:58:23;;;;;;;49.53;29.90;;;-3.50;84.50;;;;;;5036042;28;20026;-64
2024/01/11 01:00:49;;;;;;;52.33;30.60;;;-3.50;84.50;;;;;;5036017;28;20424;-64
2024/01/11 01:03:16;;;;;;;49.60;28.50;;;-3.50;84.60;;;;;;5035809;28;20021;-63
2024/01/11 01:05:42;;;;;;;43.03;25.73;;;-3.50;84.80;;;;;;5036240;28;20033;-62
2024/01/11 01:08:08;;;;;;;43.88;26.63;;;-3.50;84.70;;;;;;5035872;28;20025;-60
2024/01/11 01:10:33;;;;;;;42.07;24.73;;;-3.50;84.80;;;;;;5035793;28;20025;-64
2024/01/11 01:12:59;;;;;;;58.30;34.57;;;-3.60;84.70;;;;;;5035883;28;20025;-61
2024/01/11 01:15:25;;;;;;;45.53;26.77;;;-3.70;85.40;;;;;;5035752;28;20396;-61
2024/01/11 01:17:50;;;;;;;37.57;22.83;;;-3.80;87.10;;;;;;5035480;28;20084;-61
2024/01/11 01:20:16;;;;;;;43.53;26.60;;;-3.80;88.80;;;;;;5035652;28;20025;-67
2024/01/11 01:22:42;;;;;;;40.00;23.70;;;-3.80;89.50;;;;;;5035675;28;20018;-62
2024/01/11 01:25:07;;;;;;;39.07;23.23;;;-3.80;88.60;;;;;;5035512;28;20391;-64
2024/01/11 01:27:33;;;;;;;43.63;26.20;;;-3.70;86.90;;;;;;5035535;28;20106;-64
2024/01/11 01:29:59;;;;;;;43.40;26.43;;;-3.80;86.90;;;;;;5035526;28;20021;-66
2024/01/11 01:32:24;;;;;;;40.13;25.33;;;-3.80;87.00;;;;;;5035261;28;20029;-65
2024/01/11 01:34:50;;;;;;;44.20;25.57;;;-3.70;87.70;;;;;;5035375;28;20446;-61
2024/01/11 01:37:16;;;;;;;37.97;22.67;;;-3.70;87.30;;;;;;5035466;28;20101;-67
2024/01/11 01:39:42;;;;;;;38.73;23.27;;;-3.80;87.60;;;;;;5035066;28;20025;-62
2024/01/11 01:42:08;;;;;;;38.60;23.83;;;-3.70;87.60;;;;;;5035506;28;20025;-63
2024/01/11 01:44:34;;;;;;;37.60;24.00;;;-3.80;88.40;;;;;;5035233;28;20080;-62
2024/01/11 01:47:02;;;;;;;37.43;22.80;;;-3.70;88.20;;;;;;5035033;28;20438;-67
2024/01/11 01:49:28;;;;;;;37.07;21.27;;;-3.80;85.90;;;;;;5035338;28;20028;-60
2024/01/11 01:51:54;;;;;;;38.40;23.60;;;-3.80;83.00;;;;;;5033760;28;20053;-64
2024/01/11 01:54:22;;;;;;;38.97;24.20;;;-3.90;82.60;;;;;;5035083;28;20025;-61
2024/01/11 01:56:48;;;;;;;44.30;26.30;;;-3.90;82.40;;;;;;5034851;28;20438;-62
2024/01/11 01:59:15;;;;;;;42.67;27.40;;;-4.00;81.60;;;;;;5034940;28;20029;-62
2024/01/11 02:01:41;;;;;;;44.40;26.93;;;-4.00;81.60;;;;;;5034792;28;20096;-66
2024/01/11 02:04:07;;;;;;;46.30;25.07;;;-4.00;81.30;;;;;;5034785;28;20503;-65
2024/01/11 02:06:34;;;;;;;38.53;24.27;;;-4.10;82.10;;;;;;5034816;28;20025;-63
2024/01/11 02:09:03;;;;;;;37.00;24.93;;;-4.10;83.00;;;;;;5034802;28;20052;-64
2024/01/11 02:11:29;;;;;;;58.10;33.43;;;-4.10;83.00;;;;;;5034649;28;20109;-65
2024/01/11 02:13:55;;;;;;;47.87;26.87;;;-4.20;83.30;;;;;;5034816;28;20498;-64
2024/01/11 02:16:21;;;;;;;49.60;29.63;;;-4.20;82.90;;;;;;5034376;28;20112;-62
2024/01/11 02:18:47;;;;;;;64.43;37.93;;;-4.20;83.10;;;;;;5034501;28;20152;-65
2024/01/11 02:21:15;;;;;;;64.17;36.93;;;-4.20;82.90;;;;;;5034785;28;20108;-63
2024/01/11 02:23:46;;;;;;;80.60;45.73;;;-4.20;82.30;;;;;;5034536;28;20017;-64
2024/01/11 02:26:15;;;;;;;60.13;36.43;;;-4.20;83.00;;;;;;5034311;28;20032;-63
2024/01/11 02:28:46;;;;;;;58.80;33.77;;;-4.20;81.90;;;;;;5034502;28;20071;-65
2024/01/11 02:31:16;;;;;;;52.60;30.73;;;-4.20;81.60;;;;;;5034154;28;20017;-64
2024/01/11 02:33:42;;;;;;;48.07;29.47;;;-4.20;81.50;;;;;;5034203;28;20025;-66
2024/01/11 02:36:08;;;;;;;54.23;32.00;;;-4.20;80.50;;;;;;5034150;28;20402;-65
2024/01/11 02:38:35;;;;;;;60.07;33.57;;;-4.20;81.00;;;;;;5034233;28;20027;-62
2024/01/11 02:41:01;;;;;;;50.20;29.80;;;-4.20;81.00;;;;;;5034382;28;20399;-65
2024/01/11 02:43:26;;;;;;;48.40;28.13;;;-4.10;81.60;;;;;;5034135;28;20026;-64
2024/01/11 02:45:56;;;;;;;47.80;27.93;;;-4.10;82.30;;;;;;5033893;28;20017;-59
2024/01/11 02:48:22;;;;;;;43.03;25.57;;;-4.10;83.80;;;;;;5033975;28;20025;-62
2024/01/11 02:50:49;;;;;;;39.40;24.07;;;-4.10;85.30;;;;;;5033132;28;20117;-67
2024/01/11 02:53:14;;;;;;;36.50;23.20;;;-4.00;83.90;;;;;;5034055;28;20033;-62
2024/01/11 02:55:40;;;;;;;39.70;22.53;;;-3.90;83.80;;;;;;5033752;28;20083;-66
2024/01/11 02:58:06;;;;;;;35.63;20.73;;;-3.90;85.20;;;;;;5033927;28;20060;-64
2024/01/11 03:00:31;;;;;;;41.67;25.17;;;-3.80;83.50;;;;;;5033675;28;20025;-60
2024/01/11 03:02:57;;;;;;;38.07;22.90;;;-3.70;84.20;;;;;;5033710;28;20028;-63
2024/01/11 03:05:23;;;;;;;31.80;20.33;;;-3.70;84.50;;;;;;5034029;28;20156;-63
2024/01/11 03:07:48;;;;;;;31.60;19.87;;;-3.60;83.90;;;;;;5033634;28;20408;-62
2024/01/11 03:10:14;;;;;;;35.27;22.53;;;-3.60;84.30;;;;;;5033708;28;20082;-63
2024/01/11 03:12:40;;;;;;;30.50;18.97;;;-3.60;83.60;;;;;;5033534;28;20022;-62
2024/01/11 03:15:06;;;;;;;36.13;21.97;;;-3.60;83.30;;;;;;5033627;28;20550;-63
2024/01/11 03:17:32;;;;;;;33.27;20.83;;;-3.50;83.30;;;;;;5033548;28;20025;-63
2024/01/11 03:19:59;;;;;;;29.30;17.70;;;-3.40;84.30;;;;;;5033397;28;20472;-65
2024/01/11 03:22:25;;;;;;;29.40;18.80;;;-3.50;83.70;;;;;;5033461;28;20021;-62
2024/01/11 03:24:51;;;;;;;25.33;15.80;;;-3.40;84.90;;;;;;5033432;28;20533;-64
2024/01/11 03:27:16;;;;;;;28.10;16.70;;;-3.50;84.90;;;;;;5033250;28;20026;-64
2024/01/11 03:29:42;;;;;;;28.67;17.10;;;-3.40;85.00;;;;;;5033133;28;20026;-64
2024/01/11 03:32:08;;;;;;;26.80;17.03;;;-3.40;85.00;;;;;;5033449;28;20071;-66
2024/01/11 03:34:33;;;;;;;32.47;20.17;;;-3.40;86.00;;;;;;5033528;28;20467;-66
2024/01/11 03:36:59;;;;;;;33.30;21.67;;;-3.30;85.80;;;;;;5033281;28;20033;-65
2024/01/11 03:39:25;;;;;;;29.10;19.37;;;-3.30;86.00;;;;;;5033251;28;20021;-61
2024/01/11 03:41:51;;;;;;;27.13;16.03;;;-3.30;86.00;;;;;;5033228;28;20021;-63
2024/01/11 03:44:17;;;;;;;28.10;16.67;;;-3.30;85.70;;;;;;5032944;28;20032;-62
2024/01/11 03:46:42;;;;;;;25.43;16.70;;;-3.30;86.20;;;;;;5033259;28;20025;-63
2024/01/11 03:49:08;;;;;;;22.73;14.70;;;-3.30;86.60;;;;;;5033166;28;20017;-63
2024/01/11 03:51:34;;;;;;;27.23;17.20;;;-3.30;86.60;;;;;;5032872;28;20054;-62
2024/01/11 03:54:00;;;;;;;23.27;14.33;;;-3.20;86.20;;;;;;5033109;28;20024;-63
2024/01/11 03:56:26;;;;;;;21.75;12.93;;;-3.20;86.00;;;;;;5033057;28;20391;-65
2024/01/11 03:58:51;;;;;;;22.10;14.70;;;-3.20;85.80;;;;;;5032680;28;20095;-65
2024/01/11 04:01:17;;;;;;;21.70;13.87;;;-3.20;84.70;;;;;;5033337;28;20018;-65
2024/01/11 04:03:43;;;;;;;19.73;13.02;;;-3.20;84.40;;;;;;5037122;28;20056;-64
2024/01/11 04:06:08;;;;;;;24.92;15.60;;;-3.20;85.40;;;;;;5037027;28;20026;-64
2024/01/11 04:08:34;;;;;;;20.47;13.40;;;-3.20;85.50;;;;;;5037036;28;20036;-60
2024/01/11 04:11:04;;;;;;;20.67;14.03;;;-3.20;85.40;;;;;;5037252;28;20024;-66
2024/01/11 04:13:29;;;;;;;18.03;12.13;;;-3.20;86.10;;;;;;5036682;28;20029;-62
2024/01/11 04:15:55;;;;;;;22.95;15.82;;;-3.10;87.50;;;;;;5036806;28;20036;-58
2024/01/11 04:18:21;;;;;;;16.93;12.57;;;-3.10;85.00;;;;;;5036826;28;20033;-66
2024/01/11 04:20:46;;;;;;;21.60;14.60;;;-3.10;86.60;;;;;;5036784;28;20032;-61
2024/01/11 04:23:12;;;;;;;29.40;18.40;;;-3.10;86.10;;;;;;5036668;28;20026;-64
2024/01/11 04:25:38;;;;;;;27.30;16.90;;;-3.10;86.70;;;;;;5036629;28;20057;-66
2024/01/11 04:28:03;;;;;;;27.13;18.30;;;-3.10;86.00;;;;;;5036655;28;20036;-65
2024/01/11 04:30:29;;;;;;;25.48;16.83;;;-3.10;85.80;;;;;;5036529;28;20061;-64
2024/01/11 04:32:55;;;;;;;23.30;15.03;;;-3.10;85.50;;;;;;5036690;28;20443;-62
2024/01/11 04:35:20;;;;;;;20.13;14.30;;;-3.20;85.40;;;;;;5036453;28;20036;-63
2024/01/11 04:37:46;;;;;;;25.88;16.42;;;-3.20;85.40;;;;;;5036438;28;20472;-63
2024/01/11 04:40:12;;;;;;;19.48;13.02;;;-3.10;84.30;;;;;;5036433;28;20064;-66
2024/01/11 04:42:37;;;;;;;20.98;14.35;;;-3.10;86.20;;;;;;5036190;28;20029;-64
2024/01/11 04:45:04;;;;;;;14.95;11.05;;;-3.10;85.40;;;;;;5036297;28;20476;-61
2024/01/11 04:47:30;;;;;;;22.37;14.03;;;-3.00;85.70;;;;;;5036379;28;20033;-64
2024/01/11 04:49:56;;;;;;;28.77;16.73;;;-3.00;84.50;;;;;;5036316;28;20471;-65
2024/01/11 04:52:21;;;;;;;22.50;14.98;;;-3.00;84.30;;;;;;5036499;28;20146;-64
2024/01/11 04:54:47;;;;;;;28.07;17.70;;;-3.00;85.60;;;;;;5036109;28;20040;-61
2024/01/11 04:57:13;;;;;;;21.13;13.70;;;-3.10;86.20;;;;;;5035943;28;20021;-64
2024/01/11 04:59:38;;;;;;;17.35;11.88;;;-3.10;87.10;;;;;;5035994;28;20033;-61
2024/01/11 05:02:04;;;;;;;17.70;12.80;;;-3.10;86.50;;;;;;5035964;28;20079;-63
2024/01/11 05:04:30;;;;;;;18.93;13.10;;;-3.00;86.70;;;;;;5036024;28;20476;-60
2024/01/11 05:06:56;;;;;;;23.57;15.10;;;-3.00;86.70;;;;;;5035859;28;20032;-66
2024/01/11 05:09:21;;;;;;;27.83;18.33;;;-3.00;87.10;;;;;;5035836;28;20021;-62
2024/01/11 05:11:47;;;;;;;18.47;13.23;;;-3.00;86.80;;;;;;5035844;28;20052;-66
2024/01/11 05:14:13;;;;;;;21.63;14.07;;;-2.90;86.80;;;;;;5035217;28;20040;-63
2024/01/11 05:16:39;;;;;;;28.13;17.50;;;-2.90;85.70;;;;;;5035610;28;20065;-64
2024/01/11 05:19:04;;;;;;;20.63;14.73;;;-2.90;86.60;;;;;;5035865;28;20030;-64
2024/01/11 05:21:30;;;;;;;19.15;12.57;;;-2.90;88.70;;;;;;5035706;28;20025;-62
2024/01/11 05:23:56;;;;;;;22.45;13.80;;;-2.90;89.10;;;;;;5035724;28;20021;-62
2024/01/11 05:26:22;;;;;;;21.92;13.70;;;-2.80;88.20;;;;;;5035718;28;20152;-63
2024/01/11 05:28:48;;;;;;;20.27;13.10;;;-2.80;87.90;;;;;;5035647;28;20021;-64
2024/01/11 05:31:15;;;;;;;22.30;15.32;;;-2.70;86.40;;;;;;5035576;28;20025;-63
2024/01/11 05:33:41;;;;;;;21.20;14.27;;;-2.70;84.90;;;;;;5035714;28;20353;-62
2024/01/11 05:36:07;;;;;;;20.25;12.77;;;-2.70;85.00;;;;;;5035362;28;20029;-63
2024/01/11 05:38:34;;;;;;;22.48;13.98;;;-2.80;85.90;;;;;;5035207;28;20494;-64
2024/01/11 05:41:00;;;;;;;20.10;12.65;;;-2.90;86.60;;;;;;5035297;28;20108;-62
2024/01/11 05:43:25;;;;;;;21.70;14.37;;;-2.80;87.20;;;;;;5035361;28;20181;-66
2024/01/11 05:45:51;;;;;;;20.77;14.30;;;-2.80;86.70;;;;;;5035247;28;20032;-66
2024/01/11 05:48:17;;;;;;;23.38;14.88;;;-2.80;86.60;;;;;;5035195;28;20026;-65
2024/01/11 05:50:44;;;;;;;22.50;14.90;;;-2.80;88.50;;;;;;5035230;28;20032;-66
2024/01/11 05:53:10;;;;;;;25.02;16.65;;;-2.70;87.20;;;;;;5034792;28;20046;-61
2024/01/11 05:55:36;;;;;;;20.80;13.73;;;-2.60;87.00;;;;;;5034967;28;20025;-63
2024/01/11 05:58:02;;;;;;;26.95;17.85;;;-2.60;89.20;;;;;;5035141;28;20021;-66
2024/01/11 06:00:28;;;;;;;20.85;13.27;;;-2.60;89.90;;;;;;5034967;28;20071;-63
2024/01/11 06:02:53;;;;;;;18.38;12.43;;;-2.70;90.30;;;;;;5034888;28;20017;-61
2024/01/11 06:05:19;;;;;;;17.42;11.98;;;-2.70;90.20;;;;;;5034497;28;20029;-64
2024/01/11 06:07:45;;;;;;;21.27;13.35;;;-2.70;90.70;;;;;;5034397;28;20041;-65
2024/01/11 06:10:10;;;;;;;21.45;13.68;;;-2.70;90.60;;;;;;5034846;28;20052;-65
2024/01/11 06:12:36;;;;;;;22.95;15.80;;;-2.60;90.10;;;;;;5034704;28;20048;-62
2024/01/11 06:15:02;;;;;;;27.75;17.65;;;-2.60;90.20;;;;;;5034886;28;20028;-64
2024/01/11 06:17:28;;;;;;;39.13;21.70;;;-2.50;90.00;;;;;;5034488;28;20044;-63
2024/01/11 06:19:54;;;;;;;30.27;18.63;;;-2.70;90.50;;;;;;5034787;28;20026;-66
2024/01/11 06:22:21;;;;;;;27.83;16.65;;;-2.80;91.40;;;;;;5034403;28;20033;-63
2024/01/11 06:24:46;;;;;;;23.98;15.45;;;-2.80;92.00;;;;;;5032997;28;20097;-63
2024/01/11 06:27:12;;;;;;;24.63;15.43;;;-2.70;92.40;;;;;;5032914;28;20104;-64
2024/01/11 06:29:38;;;;;;;21.88;14.40;;;-2.60;92.30;;;;;;5034536;28;20105;-63
2024/01/11 06:32:05;;;;;;;22.73;14.15;;;-2.50;92.40;;;;;;5034635;28;20030;-65
2024/01/11 06:34:30;;;;;;;19.60;13.60;;;-2.40;91.80;;;;;;5034192;28;20025;-63
2024/01/11 06:36:56;;;;;;;23.65;14.95;;;-2.30;91.90;;;;;;5034172;28;20554;-65
2024/01/11 06:39:22;;;;;;;19.83;13.27;;;-2.20;92.00;;;;;;5034246;28;20032;-62
2024/01/11 06:41:47;;;;;;;25.30;15.48;;;-2.20;91.80;;;;;;5033308;28;20550;-63
2024/01/11 06:44:13;;;;;;;24.17;15.43;;;-2.10;91.80;;;;;;5032612;28;20022;-61
2024/01/11 06:46:41;;;;;;;22.38;13.88;;;-2.10;91.30;;;;;;5032970;28;20060;-64
2024/01/11 06:49:07;;;;;;;19.77;13.45;;;-2.10;91.10;;;;;;5033038;28;20113;-63
2024/01/11 06:51:33;;;;;;;20.42;14.27;;;-2.00;91.70;;;;;;5032220;28;20067;-65
2024/01/11 06:54:00;;;;;;;26.48;17.10;;;-1.90;92.20;;;;;;5032441;28;20096;-63
2024/01/11 06:56:27;;;;;;;22.42;14.82;;;-1.90;91.50;;;;;;5032986;28;20034;-67
2024/01/11 06:58:54;;;;;;;37.90;23.10;;;-1.90;91.20;;;;;;5033801;28;20022;-63
2024/01/11 07:01:20;;;;;;;30.77;18.42;;;-2.00;91.00;;;;;;5033832;28;20495;-64
2024/01/11 07:03:46;;;;;;;28.50;19.83;;;-2.00;92.00;;;;;;5033842;28;20025;-63
2024/01/11 07:06:11;;;;;;;27.67;18.13;;;-2.10;92.10;;;;;;5033736;28;20048;-63
2024/01/11 07:08:37;;;;;;;28.70;18.52;;;-2.00;92.20;;;;;;5033648;28;20026;-62
2024/01/11 07:11:03;;;;;;;33.65;21.58;;;-1.90;91.80;;;;;;5033711;28;20022;-64
2024/01/11 07:13:32;;;;;;;31.95;21.20;;;-1.80;92.00;;;;;;5033812;28;20060;-61
2024/01/11 07:15:58;;;;;;;30.77;20.60;;;-1.70;92.20;;;;;;5033616;28;20112;-63
2024/01/11 07:18:25;;;;;;;30.77;19.92;;;-1.60;92.10;;;;;;5033576;28;20549;-64
2024/01/11 07:20:51;;;;;;;38.22;24.13;;;-1.50;92.30;;;;;;5033524;28;20044;-61
2024/01/11 07:23:17;;;;;;;34.47;22.02;;;-1.50;92.00;;;;;;5033874;28;20353;-63
2024/01/11 07:25:43;;;;;;;33.42;21.15;;;-1.40;92.90;;;;;;5033379;28;20128;-65
2024/01/11 07:28:08;;;;;;;48.70;32.03;;;-1.40;92.80;;;;;;5033327;28;20403;-61
2024/01/11 07:30:34;;;;;;;34.30;22.00;;;-1.40;92.90;;;;;;5032201;28;20126;-67
2024/01/11 07:33:00;;;;;;;33.65;21.67;;;-1.40;92.00;;;;;;5032628;28;20026;-63
2024/01/11 07:35:26;;;;;;;53.47;32.15;;;-1.30;92.10;;;;;;5033376;28;20036;-65
2024/01/11 07:37:52;;;;;;;34.15;21.95;;;-1.30;92.00;;;;;;5032927;28;20033;-67
2024/01/11 07:40:17;;;;;;;35.13;21.95;;;-1.40;92.70;;;;;;5033116;28;20053;-62
2024/01/11 07:42:43;;;;;;;33.13;20.38;;;-1.40;94.00;;;;;;5033219;28;20021;-65
2024/01/11 07:45:12;;;;;;;29.42;18.08;;;-1.40;94.00;;;;;;5033040;28;20053;-64
2024/01/11 07:47:40;;;;;;;29.98;18.63;;;-1.40;94.30;;;;;;5032612;28;20105;-65
2024/01/11 07:50:07;;;;;;;36.72;21.58;;;-1.50;95.00;;;;;;5033134;28;20028;-66
2024/01/11 07:52:41;;;;;;;30.25;20.42;;;-1.40;95.70;;;;;;5032843;28;20194;-61
2024/01/11 07:55:07;;;;;;;30.73;19.27;;;-1.40;95.60;;;;;;5033201;28;20076;-66
2024/01/11 07:57:36;;;;;;;30.25;20.52;;;-1.30;95.30;;;;;;5034781;28;20061;-60
2024/01/11 08:00:06;;;;;;;32.88;21.13;;;-1.20;95.20;;;;;;5032912;28;20029;-67
2024/01/11 08:02:33;;;;;;;35.90;23.05;;;-1.20;94.70;;;;;;5032395;28;20140;-64
2024/01/11 08:05:01;;;;;;;21.80;15.23;;;-1.20;94.60;;;;;;5032139;28;20026;-64
2024/01/11 08:07:27;;;;;;;24.83;15.43;;;-1.40;95.10;;;;;;5032781;28;20498;-66
2024/01/11 08:09:53;;;;;;;38.05;25.10;;;-1.30;96.00;;;;;;5030664;28;20116;-63
2024/01/11 08:12:20;;;;;;;29.80;18.80;;;-1.20;95.30;;;;;;5023748;28;20375;-64
2024/01/11 08:14:49;;;;;;;27.23;18.27;;;-1.20;95.10;;;;;;5021356;28;20104;-62
2024/01/11 08:17:15;;;;;;;23.33;16.23;;;-1.20;95.00;;;;;;5018684;28;20053;-66
2024/01/11 08:19:42;;;;;;;24.65;16.42;;;-1.20;95.40;;;;;;5011939;28;20018;-61
2024/01/11 08:22:11;;;;;;;23.40;15.27;;;-1.10;94.60;;;;;;5013040;28;20457;-62
2024/01/11 08:24:37;;;;;;;32.55;18.88;;;-1.10;94.60;;;;;;5011699;28;20029;-65
2024/01/11 08:27:04;;;;;;;21.30;14.63;;;-1.00;94.60;;;;;;5012341;28;20026;-65
2024/01/11 08:29:30;;;;;;;24.48;15.85;;;-1.10;95.00;;;;;;5013273;28;20025;-65
2024/01/11 08:31:56;;;;;;;24.88;17.48;;;-1.20;95.10;;;;;;5012383;28;20073;-64
2024/01/11 08:34:22;;;;;;;24.35;15.82;;;-1.20;94.80;;;;;;5013073;28;20022;-64
2024/01/11 08:36:48;;;;;;;36.58;22.25;;;-1.10;95.10;;;;;;5012477;28;20033;-65
2024/01/11 08:39:14;;;;;;;32.80;19.65;;;-1.10;95.40;;;;;;5012524;28;20022;-65
2024/01/11 08:41:40;;;;;;;27.73;18.33;;;-1.20;95.10;;;;;;5013076;28;20030;-62
2024/01/11 08:44:06;;;;;;;23.63;15.30;;;-1.20;95.30;;;;;;5012286;28;20036;-63
2024/01/11 08:46:35;;;;;;;20.15;14.68;;;-1.10;95.40;;;;;;5012784;28;20054;-63
2024/01/11 08:49:05;;;;;;;22.92;15.57;;;-1.00;95.50;;;;;;5014251;28;20029;-61
2024/01/11 08:51:32;;;;;;;23.52;15.35;;;-0.80;94.20;;;;;;5016298;28;20511;-63
2024/01/11 08:53:58;;;;;;;22.75;13.88;;;-0.90;94.60;;;;;;5016475;28;20038;-66
2024/01/11 08:56:24;;;;;;;18.70;13.57;;;-0.80;94.00;;;;;;5034730;28;20030;-66
2024/01/11 08:58:49;;;;;;;27.55;16.63;;;-0.60;94.10;;;;;;5035655;28;20021;-63
2024/01/11 09:01:15;;;;;;;22.13;14.20;;;-0.50;92.60;;;;;;5034857;28;20021;-64
2024/01/11 09:03:41;;;;;;;24.80;15.02;;;-0.40;93.10;;;;;;5032686;28;20365;-63
2024/01/11 09:06:07;;;;;;;28.67;19.02;;;-0.30;91.90;;;;;;5038472;28;20030;-60
2024/01/11 09:08:33;;;;;;;23.33;15.07;;;-0.30;91.80;;;;;;5035300;28;20022;-66
2024/01/11 09:11:10;;;;;;;26.77;17.33;;;-0.30;91.20;;;;;;5036290;28;20018;-62
2024/01/11 09:13:36;;;;;;;34.85;20.35;;;-0.30;91.70;;;;;;5036084;28;20022;-63
2024/01/11 09:16:02;;;;;;;22.55;14.65;;;-0.20;92.00;;;;;;5034904;28;20090;-60
2024/01/11 09:18:27;;;;;;;24.85;17.13;;;-0.10;91.90;;;;;;5034384;28;20022;-61
2024/01/11 09:20:53;;;;;;;37.17;22.30;;;0.10;89.50;;;;;;5034903;28;20463;-66
2024/01/11 09:23:19;;;;;;;25.98;17.83;;;-0.10;89.40;;;;;;5034691;28;20069;-66
2024/01/11 09:25:44;;;;;;;54.05;30.85;;;-0.20;91.80;;;;;;5031181;28;20030;-63
2024/01/11 09:28:10;;;;;;;32.47;20.33;;;-0.10;90.70;;;;;;5025643;28;20037;-62
2024/01/11 09:30:36;;;;;;;31.52;20.75;;;0.00;91.00;;;;;;5025052;28;20072;-67
2024/01/11 09:33:02;;;;;;;27.05;18.13;;;0.20;89.90;;;;;;5024094;28;20389;-59
2024/01/11 09:35:28;;;;;;;30.20;19.17;;;0.40;90.20;;;;;;5026765;28;20030;-64
2024/01/11 09:37:54;;;;;;;30.00;19.45;;;0.50;86.80;;;;;;5024753;28;20115;-61
2024/01/11 09:40:20;;;;;;;25.92;16.77;;;0.70;84.30;;;;;;5024858;28;20061;-63
2024/01/11 09:42:45;;;;;;;21.20;14.98;;;0.70;85.80;;;;;;5028906;28;20486;-58
2024/01/11 09:45:16;;;;;;;22.88;15.70;;;0.80;84.20;;;;;;5024966;28;20096;-65
2024/01/11 09:47:42;;;;;;;24.38;16.80;;;0.90;80.20;;;;;;5025970;28;20025;-64
2024/01/11 09:50:08;;;;;;;29.13;19.33;;;1.10;80.40;;;;;;5023755;28;20018;-61
2024/01/11 09:52:34;;;;;;;27.38;17.83;;;1.30;76.80;;;;;;5023168;28;20047;-64
2024/01/11 09:55:00;;;;;;;19.83;14.88;;;1.30;75.60;;;;;;5023754;28;20022;-65
2024/01/11 09:57:32;;;;;;;22.13;14.65;;;1.40;75.70;;;;;;5018783;28;20038;-62
2024/01/11 09:59:58;;;;;;;23.55;15.68;;;1.40;77.60;;;;;;5024251;28;20070;-63
2024/01/11 10:02:27;;;;;;;21.98;14.82;;;1.30;77.00;;;;;;5022495;28;20603;-64
2024/01/11 10:04:53;;;;;;;19.55;14.48;;;1.30;77.90;;;;;;5024384;28;20040;-57
2024/01/11 10:07:24;;;;;;;17.42;11.98;;;1.20;74.20;;;;;;5024531;28;20232;-62
2024/01/11 10:09:51;;;;;;;23.92;16.77;;;1.10;77.60;;;;;;5022176;28;20109;-61
2024/01/11 10:12:23;;;;;;;22.27;15.73;;;1.20;77.20;;;;;;5027002;28;20510;-59
2024/01/11 10:14:49;;;;;;;20.77;13.73;;;1.20;80.30;;;;;;5020744;28;20032;-61
2024/01/11 10:17:14;;;;;;;23.13;15.45;;;1.10;80.70;;;;;;5014086;28;20510;-58
2024/01/11 10:19:40;;;;;;;22.23;16.33;;;1.00;79.30;;;;;;5021364;28;20026;-60
2024/01/11 10:22:06;;;;;;;29.58;21.23;;;1.10;77.50;;;;;;5017923;28;20022;-61
2024/01/11 10:24:32;;;;;;;37.42;26.67;;;1.10;75.20;;;;;;5018740;28;20352;-60
2024/01/11 10:27:01;;;;;;;30.45;22.10;;;0.80;74.90;;;;;;5032581;28;20029;-60
2024/01/11 10:29:39;;;;;;;25.92;18.73;;;0.70;79.90;;;;;;5032590;28;20029;-61
2024/01/11 10:32:05;;;;;;;31.17;22.65;;;0.90;80.30;;;;;;5033686;28;20037;-60
2024/01/11 10:34:30;;;;;;;28.83;21.48;;;1.10;77.30;;;;;;5034133;28;20531;-62
2024/01/11 10:36:56;;;;;;;33.47;23.42;;;1.00;77.70;;;;;;5034085;28;20483;-62
2024/01/11 10:39:26;;;;;;;26.80;20.23;;;1.00;74.60;;;;;;5034160;28;20021;-62
2024/01/11 10:42:04;;;;;;;30.00;19.77;;;0.80;76.50;;;;;;5032966;28;20025;-62
2024/01/11 10:44:33;;;;;;;32.72;22.05;;;0.80;77.90;;;;;;5032467;28;20118;-61
2024/01/11 10:47:01;;;;;;;41.05;26.90;;;0.80;76.50;;;;;;5033493;28;20056;-62
2024/01/11 10:49:30;;;;;;;35.05;24.50;;;0.50;80.50;;;;;;5032965;28;20021;-61
2024/01/11 10:52:10;;;;;;;31.55;21.35;;;0.30;80.30;;;;;;5032511;28;20068;-63
2024/01/11 10:54:36;;;;;;;29.55;19.65;;;0.50;80.30;;;;;;5030968;28;20087;-64
2024/01/11 10:57:05;;;;;;;30.45;21.10;;;0.60;80.50;;;;;;5033114;28;20034;-62
2024/01/11 10:59:32;;;;;;;24.88;17.92;;;0.60;82.40;;;;;;5032561;28;20059;-62
2024/01/11 11:02:00;;;;;;;23.15;16.88;;;0.60;82.90;;;;;;5032098;28;20101;-65
2024/01/11 11:04:27;;;;;;;24.17;17.70;;;0.70;84.00;;;;;;5033573;28;20105;-63
2024/01/11 11:06:58;;;;;;;24.95;17.98;;;0.90;81.20;;;;;;5033710;28;20029;-65
2024/01/11 11:09:25;;;;;;;27.80;20.30;;;1.00;78.40;;;;;;5032249;28;20060;-60
2024/01/11 11:11:55;;;;;;;31.67;19.27;;;1.10;77.00;;;;;;5032656;28;20018;-64
2024/01/11 11:14:22;;;;;;;24.20;18.08;;;1.00;79.20;;;;;;5033717;28;20018;-64
2024/01/11 11:16:48;;;;;;;29.27;18.50;;;0.90;78.90;;;;;;5032416;28;20048;-63
2024/01/11 11:19:15;;;;;;;21.15;15.90;;;1.00;79.30;;;;;;5032736;28;20017;-64
2024/01/11 11:21:47;;;;;;;21.73;15.82;;;1.10;78.90;;;;;;5028739;28;20025;-62
2024/01/11 11:24:13;;;;;;;26.25;17.90;;;1.20;77.90;;;;;;5021530;28;20022;-62
2024/01/11 11:26:39;;;;;;;28.45;18.00;;;1.10;79.40;;;;;;5025861;28;20037;-64
2024/01/11 11:29:08;;;;;;;26.10;18.80;;;1.00;78.30;;;;;;5024326;28;20029;-62
2024/01/11 11:31:47;;;;;;;24.33;17.15;;;0.90;76.30;;;;;;5023619;28;20582;-63
2024/01/11 11:34:14;;;;;;;23.05;16.92;;;0.90;77.90;;;;;;5018102;28;20388;-62
2024/01/11 11:36:41;;;;;;;31.40;19.52;;;0.90;77.40;;;;;;5019352;28;20499;-63
2024/01/11 11:39:11;;;;;;;27.27;18.50;;;0.90;79.30;;;;;;5021489;28;20034;-63
2024/01/11 11:41:38;;;;;;;31.50;21.05;;;0.80;81.00;;;;;;5024812;28;20160;-65
2024/01/11 11:44:05;;;;;;;29.85;19.52;;;0.70;82.30;;;;;;5032790;28;20033;-64
2024/01/11 11:46:31;;;;;;;30.95;20.63;;;0.60;85.90;;;;;;5017893;28;20032;-64
2024/01/11 11:48:57;;;;;;;31.52;21.50;;;0.60;88.30;;;;;;5013068;28;20026;-62
2024/01/11 11:51:24;;;;;;;26.23;18.13;;;0.60;86.40;;;;;;5013078;28;20049;-64
2024/01/11 11:53:51;;;;;;;25.88;17.52;;;0.80;82.80;;;;;;5024126;28;20036;-61
2024/01/11 11:56:19;;;;;;;27.73;18.67;;;1.00;79.20;;;;;;5033057;28;20057;-63
2024/01/11 11:58:46;;;;;;;19.83;14.07;;;1.10;75.30;;;;;;5032083;28;20120;-63
2024/01/11 12:01:13;;;;;;;21.35;14.98;;;1.10;77.90;;;;;;5032604;28;20551;-60
2024/01/11 12:03:41;;;;;;;22.95;15.52;;;1.20;76.60;;;;;;5032674;28;20100;-62
2024/01/11 12:06:10;;;;;;;26.00;18.08;;;1.40;74.20;;;;;;5032694;28;20060;-62
2024/01/11 12:08:36;;;;;;;25.67;17.77;;;1.50;73.00;;;;;;5032974;28;20530;-63
2024/01/11 12:11:03;;;;;;;25.23;17.15;;;1.60;70.40;;;;;;5032484;28;20021;-61
2024/01/11 12:13:29;;;;;;;22.77;15.50;;;1.50;68.80;;;;;;5033169;28;20033;-61
2024/01/11 12:15:56;;;;;;;22.58;16.45;;;1.50;70.00;;;;;;5032178;28;20037;-63
2024/01/11 12:18:21;;;;;;;29.15;19.42;;;1.50;69.60;;;;;;5030772;28;20037;-61
2024/01/11 12:20:47;;;;;;;25.27;16.98;;;1.30;70.50;;;;;;5030874;28;20025;-62
2024/01/11 12:23:16;;;;;;;32.55;20.95;;;1.10;73.90;;;;;;5032625;28;20045;-63
2024/01/11 12:25:42;;;;;;;27.02;18.73;;;1.10;79.00;;;;;;5034916;28;20392;-61